This is the latest recevied weather packets stored in our database for station/object IU1OLT-7. If no packets are shown the sender has not sent any weather packets the latest 10 day(s).
| Time | Temp. | Humidity | Pressure | Rain* | Wind** | Luminosity | Snow |
|---|---|---|---|---|---|---|---|
| 1777292467 | 24.44° C | 38% | 1021.5 hPa | - | - | - | - |
| 1777291567 | 24.44° C | 38% | 1021.5 hPa | - | - | - | - |
| 1777290667 | 25.56° C | 35% | 1021.6 hPa | - | - | - | - |
| 1777289767 | 25° C | 39% | 1021.7 hPa | - | - | - | - |
| 1777288867 | 27.22° C | 30% | 1021.6 hPa | - | - | - | - |
| 1777287967 | 24.44° C | 37% | 1021.8 hPa | - | - | - | - |
| 1777287067 | 22.78° C | 40% | 1021.8 hPa | - | - | - | - |
| 1777285267 | 22.78° C | 42% | 1021.9 hPa | - | - | - | - |
| 1777284367 | 25° C | 35% | 1021.9 hPa | - | - | - | - |
| 1777283467 | 21.67° C | 39% | 1022 hPa | - | - | - | - |
| 1777282567 | 25° C | 38% | 1022 hPa | - | - | - | - |
| 1777281667 | 24.44° C | 35% | 1022 hPa | - | - | - | - |
| 1777280767 | 24.44° C | 34% | 1022 hPa | - | - | - | - |
| 1777279867 | 22.22° C | 38% | 1022.2 hPa | - | - | - | - |
| 1777278967 | 24.44° C | 33% | 1022.1 hPa | - | - | - | - |
| 1777278067 | 24.44° C | 35% | 1022 hPa | - | - | - | - |
| 1777277167 | 23.89° C | 34% | 1022 hPa | - | - | - | - |
| 1777276267 | 22.78° C | 38% | 1021.9 hPa | - | - | - | - |
| 1777275367 | 21.67° C | 40% | 1021.9 hPa | - | - | - | - |
| 1777274467 | 22.22° C | 35% | 1021.8 hPa | - | - | - | - |
| 1777273567 | 21.11° C | 37% | 1021.9 hPa | - | - | - | - |
| 1777272667 | 20° C | 35% | 1021.9 hPa | - | - | - | - |
| 1777271767 | 22.78° C | 30% | 1021.8 hPa | - | - | - | - |
| 1777270867 | 23.89° C | 28% | 1021.8 hPa | - | - | - | - |
| 1777269967 | 22.22° C | 31% | 1021.8 hPa | - | - | - | - |
* Rain since midnight (hover to see other rain measurements)
** Current wind speed in m/s (hover to see current wind gust speed)